sensor_id;sensor_type;location;lat;lon;timestamp;P1;durP1;ratioP1;P2;durP2;ratioP2
15996;SDS011;8103;51.340;12.326;2023-12-22T00:02:11;15.07;;;3.38;;
15996;SDS011;8103;51.340;12.326;2023-12-22T00:04:37;21.73;;;4.78;;
15996;SDS011;8103;51.340;12.326;2023-12-22T00:07:04;14.15;;;3.78;;
15996;SDS011;8103;51.340;12.326;2023-12-22T00:09:30;25.73;;;4.30;;
15996;SDS011;8103;51.340;12.326;2023-12-22T00:11:57;26.33;;;4.90;;
15996;SDS011;8103;51.340;12.326;2023-12-22T00:14:24;16.77;;;3.63;;
15996;SDS011;8103;51.340;12.326;2023-12-22T00:16:50;20.73;;;3.67;;
15996;SDS011;8103;51.340;12.326;2023-12-22T00:19:17;15.07;;;4.38;;
15996;SDS011;8103;51.340;12.326;2023-12-22T00:21:44;17.67;;;5.75;;
15996;SDS011;8103;51.340;12.326;2023-12-22T00:24:10;23.88;;;4.40;;
15996;SDS011;8103;51.340;12.326;2023-12-22T00:26:37;12.95;;;3.15;;
15996;SDS011;8103;51.340;12.326;2023-12-22T00:29:03;12.32;;;3.60;;
15996;SDS011;8103;51.340;12.326;2023-12-22T00:31:30;11.45;;;3.75;;
15996;SDS011;8103;51.340;12.326;2023-12-22T00:33:57;9.88;;;4.63;;
15996;SDS011;8103;51.340;12.326;2023-12-22T00:36:23;19.58;;;3.13;;
15996;SDS011;8103;51.340;12.326;2023-12-22T00:38:50;10.55;;;2.22;;
15996;SDS011;8103;51.340;12.326;2023-12-22T00:41:17;4.63;;;2.33;;
15996;SDS011;8103;51.340;12.326;2023-12-22T00:43:44;16.92;;;3.90;;
15996;SDS011;8103;51.340;12.326;2023-12-22T00:46:10;11.05;;;3.15;;
15996;SDS011;8103;51.340;12.326;2023-12-22T00:48:37;15.13;;;3.70;;
15996;SDS011;8103;51.340;12.326;2023-12-22T00:51:05;12.18;;;3.63;;
15996;SDS011;8103;51.340;12.326;2023-12-22T00:53:33;11.55;;;3.92;;
15996;SDS011;8103;51.340;12.326;2023-12-22T00:56:00;17.42;;;3.75;;
15996;SDS011;8103;51.340;12.326;2023-12-22T00:58:29;15.80;;;4.32;;
15996;SDS011;8103;51.340;12.326;2023-12-22T01:00:56;17.40;;;3.08;;
15996;SDS011;8103;51.340;12.326;2023-12-22T01:03:23;16.83;;;4.18;;
15996;SDS011;8103;51.340;12.326;2023-12-22T01:05:50;14.75;;;3.58;;
15996;SDS011;8103;51.340;12.326;2023-12-22T01:08:16;16.67;;;3.08;;
15996;SDS011;8103;51.340;12.326;2023-12-22T01:10:43;13.32;;;3.47;;
15996;SDS011;8103;51.340;12.326;2023-12-22T01:13:10;14.52;;;3.47;;
15996;SDS011;8103;51.340;12.326;2023-12-22T01:15:36;18.27;;;4.93;;
15996;SDS011;8103;51.340;12.326;2023-12-22T01:18:03;16.98;;;3.70;;
15996;SDS011;8103;51.340;12.326;2023-12-22T01:20:30;20.77;;;5.30;;
15996;SDS011;8103;51.340;12.326;2023-12-22T01:22:57;18.92;;;3.35;;
15996;SDS011;8103;51.340;12.326;2023-12-22T01:25:24;22.40;;;4.10;;
15996;SDS011;8103;51.340;12.326;2023-12-22T01:27:50;17.55;;;4.60;;
15996;SDS011;8103;51.340;12.326;2023-12-22T01:30:18;9.68;;;3.90;;
15996;SDS011;8103;51.340;12.326;2023-12-22T01:32:45;18.00;;;3.45;;
15996;SDS011;8103;51.340;12.326;2023-12-22T01:35:12;18.52;;;4.70;;
15996;SDS011;8103;51.340;12.326;2023-12-22T01:37:40;14.35;;;4.07;;
15996;SDS011;8103;51.340;12.326;2023-12-22T01:40:07;17.55;;;4.82;;
15996;SDS011;8103;51.340;12.326;2023-12-22T01:42:34;18.73;;;3.92;;
15996;SDS011;8103;51.340;12.326;2023-12-22T01:45:01;14.63;;;4.32;;
15996;SDS011;8103;51.340;12.326;2023-12-22T01:47:27;14.32;;;3.25;;
15996;SDS011;8103;51.340;12.326;2023-12-22T01:49:54;18.88;;;4.75;;
15996;SDS011;8103;51.340;12.326;2023-12-22T01:52:21;22.15;;;4.88;;
15996;SDS011;8103;51.340;12.326;2023-12-22T01:54:49;17.95;;;4.95;;
15996;SDS011;8103;51.340;12.326;2023-12-22T01:57:16;15.52;;;5.38;;
15996;SDS011;8103;51.340;12.326;2023-12-22T01:59:45;23.63;;;4.35;;
15996;SDS011;8103;51.340;12.326;2023-12-22T02:02:12;17.73;;;4.32;;
15996;SDS011;8103;51.340;12.326;2023-12-22T02:04:39;15.30;;;3.80;;
15996;SDS011;8103;51.340;12.326;2023-12-22T02:07:07;15.85;;;4.45;;
15996;SDS011;8103;51.340;12.326;2023-12-22T02:09:36;17.42;;;3.95;;
15996;SDS011;8103;51.340;12.326;2023-12-22T02:12:03;16.02;;;4.28;;
15996;SDS011;8103;51.340;12.326;2023-12-22T02:14:30;16.55;;;3.67;;
15996;SDS011;8103;51.340;12.326;2023-12-22T02:17:11;11.32;;;4.03;;
15996;SDS011;8103;51.340;12.326;2023-12-22T02:19:42;17.45;;;3.42;;
15996;SDS011;8103;51.340;12.326;2023-12-22T02:22:11;20.58;;;4.25;;
15996;SDS011;8103;51.340;12.326;2023-12-22T02:24:39;19.00;;;4.70;;
15996;SDS011;8103;51.340;12.326;2023-12-22T02:29:55;16.52;;;3.90;;
15996;SDS011;8103;51.340;12.326;2023-12-22T02:32:30;20.25;;;4.82;;
15996;SDS011;8103;51.340;12.326;2023-12-22T02:35:00;16.55;;;3.75;;
15996;SDS011;8103;51.340;12.326;2023-12-22T02:37:31;19.33;;;4.05;;
15996;SDS011;8103;51.340;12.326;2023-12-22T02:39:59;17.15;;;4.50;;
15996;SDS011;8103;51.340;12.326;2023-12-22T02:42:28;16.23;;;3.95;;
15996;SDS011;8103;51.340;12.326;2023-12-22T02:44:57;20.67;;;4.63;;
15996;SDS011;8103;51.340;12.326;2023-12-22T02:47:24;20.73;;;4.82;;
15996;SDS011;8103;51.340;12.326;2023-12-22T02:49:54;15.32;;;4.40;;
15996;SDS011;8103;51.340;12.326;2023-12-22T02:52:20;17.65;;;4.15;;
15996;SDS011;8103;51.340;12.326;2023-12-22T02:54:47;18.25;;;4.30;;
15996;SDS011;8103;51.340;12.326;2023-12-22T02:57:14;15.30;;;3.20;;
15996;SDS011;8103;51.340;12.326;2023-12-22T02:59:40;18.60;;;3.70;;
15996;SDS011;8103;51.340;12.326;2023-12-22T03:02:07;15.27;;;3.75;;
15996;SDS011;8103;51.340;12.326;2023-12-22T03:04:34;10.48;;;3.63;;
15996;SDS011;8103;51.340;12.326;2023-12-22T03:07:00;12.07;;;3.35;;
15996;SDS011;8103;51.340;12.326;2023-12-22T03:09:27;10.75;;;3.25;;
15996;SDS011;8103;51.340;12.326;2023-12-22T03:11:54;17.15;;;4.13;;
15996;SDS011;8103;51.340;12.326;2023-12-22T03:14:22;11.40;;;2.85;;
15996;SDS011;8103;51.340;12.326;2023-12-22T03:16:49;13.77;;;3.38;;
15996;SDS011;8103;51.340;12.326;2023-12-22T03:19:16;15.98;;;3.40;;
15996;SDS011;8103;51.340;12.326;2023-12-22T03:21:42;13.77;;;2.97;;
15996;SDS011;8103;51.340;12.326;2023-12-22T03:24:09;12.57;;;3.92;;
15996;SDS011;8103;51.340;12.326;2023-12-22T03:26:35;11.68;;;3.53;;
15996;SDS011;8103;51.340;12.326;2023-12-22T03:29:02;10.05;;;2.67;;
15996;SDS011;8103;51.340;12.326;2023-12-22T03:31:29;14.13;;;2.97;;
15996;SDS011;8103;51.340;12.326;2023-12-22T03:33:55;14.50;;;3.50;;
15996;SDS011;8103;51.340;12.326;2023-12-22T03:36:22;13.35;;;3.25;;
15996;SDS011;8103;51.340;12.326;2023-12-22T03:38:49;10.80;;;2.88;;
15996;SDS011;8103;51.340;12.326;2023-12-22T03:41:15;11.20;;;2.72;;
15996;SDS011;8103;51.340;12.326;2023-12-22T03:43:42;9.32;;;2.30;;
15996;SDS011;8103;51.340;12.326;2023-12-22T03:46:09;11.60;;;2.78;;
15996;SDS011;8103;51.340;12.326;2023-12-22T03:48:35;4.85;;;2.53;;
15996;SDS011;8103;51.340;12.326;2023-12-22T03:51:02;6.43;;;2.15;;
15996;SDS011;8103;51.340;12.326;2023-12-22T03:53:29;12.23;;;2.03;;
15996;SDS011;8103;51.340;12.326;2023-12-22T03:55:55;9.35;;;3.15;;
15996;SDS011;8103;51.340;12.326;2023-12-22T03:58:22;8.73;;;2.78;;
15996;SDS011;8103;51.340;12.326;2023-12-22T04:00:49;7.22;;;2.20;;
15996;SDS011;8103;51.340;12.326;2023-12-22T04:03:16;8.77;;;2.75;;
15996;SDS011;8103;51.340;12.326;2023-12-22T04:05:42;6.55;;;1.45;;
15996;SDS011;8103;51.340;12.326;2023-12-22T04:08:09;6.05;;;1.30;;
15996;SDS011;8103;51.340;12.326;2023-12-22T04:10:36;7.65;;;1.95;;
15996;SDS011;8103;51.340;12.326;2023-12-22T04:13:02;3.67;;;1.10;;
15996;SDS011;8103;51.340;12.326;2023-12-22T04:15:29;4.78;;;1.25;;
15996;SDS011;8103;51.340;12.326;2023-12-22T04:17:55;5.30;;;1.00;;
15996;SDS011;8103;51.340;12.326;2023-12-22T04:20:22;4.13;;;1.25;;
15996;SDS011;8103;51.340;12.326;2023-12-22T04:22:50;4.22;;;1.15;;
15996;SDS011;8103;51.340;12.326;2023-12-22T04:25:16;6.15;;;1.08;;
15996;SDS011;8103;51.340;12.326;2023-12-22T04:27:44;2.42;;;1.20;;
15996;SDS011;8103;51.340;12.326;2023-12-22T04:30:11;1.38;;;0.55;;
15996;SDS011;8103;51.340;12.326;2023-12-22T04:32:38;2.53;;;1.35;;
15996;SDS011;8103;51.340;12.326;2023-12-22T04:35:04;6.18;;;1.20;;
15996;SDS011;8103;51.340;12.326;2023-12-22T04:37:31;6.45;;;1.30;;
15996;SDS011;8103;51.340;12.326;2023-12-22T04:39:58;8.60;;;1.30;;
15996;SDS011;8103;51.340;12.326;2023-12-22T04:42:25;5.18;;;1.58;;
15996;SDS011;8103;51.340;12.326;2023-12-22T04:44:52;9.30;;;1.77;;
15996;SDS011;8103;51.340;12.326;2023-12-22T04:47:19;7.05;;;1.88;;
15996;SDS011;8103;51.340;12.326;2023-12-22T04:49:46;4.65;;;1.25;;
15996;SDS011;8103;51.340;12.326;2023-12-22T04:52:13;4.70;;;1.65;;
15996;SDS011;8103;51.340;12.326;2023-12-22T04:54:40;8.98;;;1.67;;
15996;SDS011;8103;51.340;12.326;2023-12-22T04:57:06;6.30;;;1.35;;
15996;SDS011;8103;51.340;12.326;2023-12-22T04:59:33;7.43;;;2.15;;
15996;SDS011;8103;51.340;12.326;2023-12-22T05:01:59;6.10;;;1.90;;
15996;SDS011;8103;51.340;12.326;2023-12-22T05:04:26;4.68;;;1.75;;
15996;SDS011;8103;51.340;12.326;2023-12-22T05:06:53;8.85;;;2.10;;
15996;SDS011;8103;51.340;12.326;2023-12-22T05:09:20;10.48;;;2.10;;
15996;SDS011;8103;51.340;12.326;2023-12-22T05:11:46;14.65;;;2.70;;
15996;SDS011;8103;51.340;12.326;2023-12-22T05:14:13;6.03;;;2.10;;
15996;SDS011;8103;51.340;12.326;2023-12-22T05:16:40;7.40;;;1.73;;
15996;SDS011;8103;51.340;12.326;2023-12-22T05:19:06;8.32;;;1.38;;
15996;SDS011;8103;51.340;12.326;2023-12-22T05:21:33;6.20;;;1.88;;
15996;SDS011;8103;51.340;12.326;2023-12-22T05:24:00;4.68;;;1.55;;
15996;SDS011;8103;51.340;12.326;2023-12-22T05:26:26;6.57;;;1.77;;
15996;SDS011;8103;51.340;12.326;2023-12-22T05:28:56;4.88;;;2.10;;
15996;SDS011;8103;51.340;12.326;2023-12-22T05:31:23;9.65;;;2.47;;
15996;SDS011;8103;51.340;12.326;2023-12-22T05:33:51;12.98;;;2.03;;
15996;SDS011;8103;51.340;12.326;2023-12-22T05:36:17;9.73;;;2.10;;
15996;SDS011;8103;51.340;12.326;2023-12-22T05:38:44;7.30;;;1.58;;
15996;SDS011;8103;51.340;12.326;2023-12-22T05:41:11;8.45;;;2.25;;
15996;SDS011;8103;51.340;12.326;2023-12-22T05:43:38;12.80;;;2.38;;
15996;SDS011;8103;51.340;12.326;2023-12-22T05:46:05;6.88;;;1.92;;
15996;SDS011;8103;51.340;12.326;2023-12-22T05:48:31;10.07;;;1.98;;
15996;SDS011;8103;51.340;12.326;2023-12-22T05:51:00;10.45;;;2.00;;
15996;SDS011;8103;51.340;12.326;2023-12-22T05:53:29;9.45;;;3.97;;
15996;SDS011;8103;51.340;12.326;2023-12-22T05:55:55;9.82;;;2.95;;
15996;SDS011;8103;51.340;12.326;2023-12-22T05:58:22;8.85;;;2.00;;
15996;SDS011;8103;51.340;12.326;2023-12-22T06:00:49;6.38;;;2.03;;
15996;SDS011;8103;51.340;12.326;2023-12-22T06:03:16;6.43;;;1.58;;
15996;SDS011;8103;51.340;12.326;2023-12-22T06:05:42;7.60;;;2.58;;
15996;SDS011;8103;51.340;12.326;2023-12-22T06:08:09;7.25;;;1.75;;
15996;SDS011;8103;51.340;12.326;2023-12-22T06:10:36;3.60;;;1.42;;
15996;SDS011;8103;51.340;12.326;2023-12-22T06:13:03;10.13;;;1.75;;
15996;SDS011;8103;51.340;12.326;2023-12-22T06:15:30;6.93;;;1.80;;
15996;SDS011;8103;51.340;12.326;2023-12-22T06:17:57;9.73;;;1.40;;
15996;SDS011;8103;51.340;12.326;2023-12-22T06:20:24;5.93;;;1.80;;
15996;SDS011;8103;51.340;12.326;2023-12-22T06:22:52;6.78;;;2.28;;
15996;SDS011;8103;51.340;12.326;2023-12-22T06:25:19;4.25;;;1.85;;
15996;SDS011;8103;51.340;12.326;2023-12-22T06:27:45;12.32;;;2.33;;
15996;SDS011;8103;51.340;12.326;2023-12-22T06:30:12;10.48;;;1.85;;
15996;SDS011;8103;51.340;12.326;2023-12-22T06:32:39;7.93;;;1.83;;
15996;SDS011;8103;51.340;12.326;2023-12-22T06:35:07;13.60;;;2.03;;
15996;SDS011;8103;51.340;12.326;2023-12-22T06:37:37;5.15;;;1.90;;
15996;SDS011;8103;51.340;12.326;2023-12-22T06:40:04;6.22;;;1.83;;
15996;SDS011;8103;51.340;12.326;2023-12-22T06:42:32;10.68;;;2.22;;
15996;SDS011;8103;51.340;12.326;2023-12-22T06:44:58;6.68;;;1.48;;
15996;SDS011;8103;51.340;12.326;2023-12-22T06:47:25;13.23;;;2.03;;
15996;SDS011;8103;51.340;12.326;2023-12-22T06:49:53;8.85;;;2.33;;
15996;SDS011;8103;51.340;12.326;2023-12-22T06:52:20;7.53;;;2.13;;
15996;SDS011;8103;51.340;12.326;2023-12-22T06:54:46;9.23;;;3.45;;
15996;SDS011;8103;51.340;12.326;2023-12-22T06:57:13;8.13;;;1.77;;
15996;SDS011;8103;51.340;12.326;2023-12-22T06:59:41;12.02;;;2.75;;
15996;SDS011;8103;51.340;12.326;2023-12-22T07:02:09;5.07;;;2.72;;
15996;SDS011;8103;51.340;12.326;2023-12-22T07:04:59;4.82;;;1.98;;
15996;SDS011;8103;51.340;12.326;2023-12-22T07:07:54;6.35;;;1.70;;
15996;SDS011;8103;51.340;12.326;2023-12-22T07:10:21;8.77;;;2.78;;
15996;SDS011;8103;51.340;12.326;2023-12-22T07:12:47;11.23;;;2.38;;
15996;SDS011;8103;51.340;12.326;2023-12-22T07:15:14;6.93;;;1.98;;
15996;SDS011;8103;51.340;12.326;2023-12-22T07:17:41;6.75;;;2.95;;
15996;SDS011;8103;51.340;12.326;2023-12-22T07:20:08;8.85;;;2.10;;
15996;SDS011;8103;51.340;12.326;2023-12-22T07:22:35;8.45;;;2.05;;
15996;SDS011;8103;51.340;12.326;2023-12-22T07:25:02;9.32;;;1.92;;
15996;SDS011;8103;51.340;12.326;2023-12-22T07:27:29;6.53;;;2.00;;
15996;SDS011;8103;51.340;12.326;2023-12-22T07:29:56;6.20;;;1.85;;
15996;SDS011;8103;51.340;12.326;2023-12-22T07:32:23;2.30;;;1.05;;
15996;SDS011;8103;51.340;12.326;2023-12-22T07:34:49;8.07;;;1.42;;
15996;SDS011;8103;51.340;12.326;2023-12-22T07:37:16;6.15;;;1.35;;
15996;SDS011;8103;51.340;12.326;2023-12-22T07:39:43;9.75;;;1.65;;
15996;SDS011;8103;51.340;12.326;2023-12-22T07:42:11;7.18;;;1.50;;
15996;SDS011;8103;51.340;12.326;2023-12-22T07:44:38;8.18;;;1.80;;
15996;SDS011;8103;51.340;12.326;2023-12-22T07:47:05;3.47;;;1.40;;
15996;SDS011;8103;51.340;12.326;2023-12-22T07:49:33;5.82;;;1.95;;
15996;SDS011;8103;51.340;12.326;2023-12-22T07:52:00;5.00;;;1.50;;
15996;SDS011;8103;51.340;12.326;2023-12-22T07:54:27;8.30;;;1.95;;
15996;SDS011;8103;51.340;12.326;2023-12-22T07:56:54;2.75;;;1.10;;
15996;SDS011;8103;51.340;12.326;2023-12-22T07:59:21;6.15;;;1.40;;
15996;SDS011;8103;51.340;12.326;2023-12-22T08:01:52;9.57;;;2.63;;
15996;SDS011;8103;51.340;12.326;2023-12-22T08:04:18;5.82;;;1.40;;
15996;SDS011;8103;51.340;12.326;2023-12-22T08:06:45;8.88;;;2.03;;
15996;SDS011;8103;51.340;12.326;2023-12-22T08:09:12;7.32;;;1.40;;
15996;SDS011;8103;51.340;12.326;2023-12-22T08:11:39;5.75;;;1.88;;
15996;SDS011;8103;51.340;12.326;2023-12-22T08:14:06;5.97;;;2.30;;
15996;SDS011;8103;51.340;12.326;2023-12-22T08:16:32;8.10;;;1.65;;
15996;SDS011;8103;51.340;12.326;2023-12-22T08:18:59;7.80;;;1.60;;
15996;SDS011;8103;51.340;12.326;2023-12-22T08:21:26;6.85;;;2.00;;
15996;SDS011;8103;51.340;12.326;2023-12-22T08:23:59;5.50;;;1.42;;
15996;SDS011;8103;51.340;12.326;2023-12-22T08:26:25;3.08;;;0.85;;
15996;SDS011;8103;51.340;12.326;2023-12-22T08:28:52;3.10;;;1.40;;
15996;SDS011;8103;51.340;12.326;2023-12-22T08:31:19;8.32;;;1.50;;
15996;SDS011;8103;51.340;12.326;2023-12-22T08:33:48;8.20;;;1.55;;
15996;SDS011;8103;51.340;12.326;2023-12-22T08:36:15;5.28;;;1.50;;
15996;SDS011;8103;51.340;12.326;2023-12-22T08:38:42;4.80;;;1.35;;
15996;SDS011;8103;51.340;12.326;2023-12-22T08:41:10;3.22;;;1.20;;
15996;SDS011;8103;51.340;12.326;2023-12-22T08:43:38;5.57;;;1.45;;
15996;SDS011;8103;51.340;12.326;2023-12-22T08:46:06;2.97;;;1.33;;
15996;SDS011;8103;51.340;12.326;2023-12-22T08:48:33;7.43;;;1.83;;
15996;SDS011;8103;51.340;12.326;2023-12-22T08:51:01;4.80;;;1.20;;
15996;SDS011;8103;51.340;12.326;2023-12-22T08:53:27;2.78;;;1.15;;
15996;SDS011;8103;51.340;12.326;2023-12-22T08:55:56;4.45;;;1.27;;
15996;SDS011;8103;51.340;12.326;2023-12-22T08:58:23;4.43;;;0.82;;
15996;SDS011;8103;51.340;12.326;2023-12-22T09:00:49;2.40;;;1.13;;
15996;SDS011;8103;51.340;12.326;2023-12-22T09:03:17;4.03;;;0.85;;
15996;SDS011;8103;51.340;12.326;2023-12-22T09:05:44;1.38;;;0.57;;
15996;SDS011;8103;51.340;12.326;2023-12-22T09:08:11;2.13;;;0.70;;
15996;SDS011;8103;51.340;12.326;2023-12-22T09:10:37;1.45;;;0.60;;
15996;SDS011;8103;51.340;12.326;2023-12-22T09:13:04;0.50;;;0.50;;
15996;SDS011;8103;51.340;12.326;2023-12-22T09:15:30;2.63;;;0.70;;
15996;SDS011;8103;51.340;12.326;2023-12-22T09:17:57;1.58;;;0.50;;
15996;SDS011;8103;51.340;12.326;2023-12-22T09:20:24;5.45;;;0.68;;
15996;SDS011;8103;51.340;12.326;2023-12-22T09:22:50;3.17;;;0.80;;
15996;SDS011;8103;51.340;12.326;2023-12-22T09:25:17;1.92;;;0.73;;
15996;SDS011;8103;51.340;12.326;2023-12-22T09:27:45;5.40;;;1.05;;
15996;SDS011;8103;51.340;12.326;2023-12-22T09:30:12;0.73;;;0.40;;
15996;SDS011;8103;51.340;12.326;2023-12-22T09:32:39;0.70;;;0.45;;
15996;SDS011;8103;51.340;12.326;2023-12-22T09:35:05;2.10;;;0.50;;
15996;SDS011;8103;51.340;12.326;2023-12-22T09:37:33;2.72;;;0.55;;
15996;SDS011;8103;51.340;12.326;2023-12-22T09:40:01;0.75;;;0.60;;
15996;SDS011;8103;51.340;12.326;2023-12-22T09:42:28;3.90;;;1.40;;
15996;SDS011;8103;51.340;12.326;2023-12-22T09:44:55;1.00;;;0.63;;
15996;SDS011;8103;51.340;12.326;2023-12-22T09:47:25;2.25;;;0.60;;
15996;SDS011;8103;51.340;12.326;2023-12-22T09:49:55;0.50;;;0.50;;
15996;SDS011;8103;51.340;12.326;2023-12-22T09:52:24;0.90;;;0.50;;
15996;SDS011;8103;51.340;12.326;2023-12-22T09:54:52;0.45;;;0.30;;
15996;SDS011;8103;51.340;12.326;2023-12-22T09:57:22;0.68;;;0.55;;
15996;SDS011;8103;51.340;12.326;2023-12-22T09:59:53;0.43;;;0.30;;
15996;SDS011;8103;51.340;12.326;2023-12-22T10:02:22;1.38;;;0.32;;
15996;SDS011;8103;51.340;12.326;2023-12-22T10:04:52;0.85;;;0.65;;
15996;SDS011;8103;51.340;12.326;2023-12-22T10:07:19;0.57;;;0.35;;
15996;SDS011;8103;51.340;12.326;2023-12-22T10:09:48;0.43;;;0.40;;
15996;SDS011;8103;51.340;12.326;2023-12-22T10:12:16;0.77;;;0.40;;
15996;SDS011;8103;51.340;12.326;2023-12-22T10:14:46;0.50;;;0.40;;
15996;SDS011;8103;51.340;12.326;2023-12-22T10:17:14;3.30;;;0.70;;
15996;SDS011;8103;51.340;12.326;2023-12-22T10:19:42;2.08;;;0.57;;
15996;SDS011;8103;51.340;12.326;2023-12-22T10:22:09;0.35;;;0.32;;
15996;SDS011;8103;51.340;12.326;2023-12-22T10:24:36;0.73;;;0.35;;
15996;SDS011;8103;51.340;12.326;2023-12-22T10:27:05;1.48;;;0.90;;
15996;SDS011;8103;51.340;12.326;2023-12-22T10:29:32;1.38;;;0.77;;
15996;SDS011;8103;51.340;12.326;2023-12-22T10:32:01;2.67;;;1.20;;
15996;SDS011;8103;51.340;12.326;2023-12-22T10:34:31;5.07;;;1.23;;
15996;SDS011;8103;51.340;12.326;2023-12-22T10:37:01;5.10;;;0.77;;
15996;SDS011;8103;51.340;12.326;2023-12-22T10:39:30;1.20;;;0.80;;
15996;SDS011;8103;51.340;12.326;2023-12-22T10:41:58;5.15;;;0.77;;
15996;SDS011;8103;51.340;12.326;2023-12-22T10:44:26;7.57;;;1.30;;
15996;SDS011;8103;51.340;12.326;2023-12-22T10:46:55;6.50;;;1.30;;
15996;SDS011;8103;51.340;12.326;2023-12-22T10:49:22;2.72;;;1.52;;
15996;SDS011;8103;51.340;12.326;2023-12-22T10:51:50;5.80;;;1.40;;
15996;SDS011;8103;51.340;12.326;2023-12-22T10:54:18;7.93;;;1.30;;
15996;SDS011;8103;51.340;12.326;2023-12-22T10:56:45;5.72;;;1.50;;
15996;SDS011;8103;51.340;12.326;2023-12-22T10:59:12;6.85;;;1.65;;
15996;SDS011;8103;51.340;12.326;2023-12-22T11:01:44;8.52;;;1.83;;
15996;SDS011;8103;51.340;12.326;2023-12-22T11:04:17;8.10;;;2.72;;
15996;SDS011;8103;51.340;12.326;2023-12-22T11:06:47;8.52;;;1.92;;
15996;SDS011;8103;51.340;12.326;2023-12-22T11:09:16;6.68;;;1.60;;
15996;SDS011;8103;51.340;12.326;2023-12-22T11:11:46;3.60;;;1.60;;
15996;SDS011;8103;51.340;12.326;2023-12-22T11:14:15;5.32;;;1.48;;
15996;SDS011;8103;51.340;12.326;2023-12-22T11:16:42;9.20;;;1.75;;
15996;SDS011;8103;51.340;12.326;2023-12-22T11:23:02;8.02;;;2.00;;
15996;SDS011;8103;51.340;12.326;2023-12-22T11:25:30;10.40;;;1.95;;
15996;SDS011;8103;51.340;12.326;2023-12-22T11:27:58;4.88;;;1.60;;
15996;SDS011;8103;51.340;12.326;2023-12-22T11:30:26;7.05;;;1.80;;
15996;SDS011;8103;51.340;12.326;2023-12-22T11:32:54;9.15;;;2.22;;
15996;SDS011;8103;51.340;12.326;2023-12-22T11:35:23;5.85;;;1.85;;
15996;SDS011;8103;51.340;12.326;2023-12-22T11:37:55;10.73;;;2.15;;
15996;SDS011;8103;51.340;12.326;2023-12-22T11:40:23;10.93;;;3.97;;
15996;SDS011;8103;51.340;12.326;2023-12-22T11:42:50;8.85;;;3.05;;
15996;SDS011;8103;51.340;12.326;2023-12-22T11:45:18;5.00;;;2.30;;
15996;SDS011;8103;51.340;12.326;2023-12-22T11:47:48;8.18;;;2.45;;
15996;SDS011;8103;51.340;12.326;2023-12-22T11:50:30;13.38;;;2.85;;
15996;SDS011;8103;51.340;12.326;2023-12-22T11:53:16;5.95;;;2.20;;
15996;SDS011;8103;51.340;12.326;2023-12-22T11:56:02;13.00;;;3.45;;
15996;SDS011;8103;51.340;12.326;2023-12-22T11:58:38;9.93;;;2.05;;
15996;SDS011;8103;51.340;12.326;2023-12-22T12:01:10;11.55;;;2.83;;
15996;SDS011;8103;51.340;12.326;2023-12-22T12:03:42;10.07;;;2.53;;
15996;SDS011;8103;51.340;12.326;2023-12-22T12:06:14;9.48;;;2.05;;
15996;SDS011;8103;51.340;12.326;2023-12-22T12:08:43;9.55;;;2.20;;
15996;SDS011;8103;51.340;12.326;2023-12-22T12:11:10;8.80;;;1.88;;
15996;SDS011;8103;51.340;12.326;2023-12-22T12:13:38;8.23;;;2.33;;
15996;SDS011;8103;51.340;12.326;2023-12-22T12:16:13;8.90;;;1.88;;
15996;SDS011;8103;51.340;12.326;2023-12-22T12:18:41;7.00;;;1.90;;
15996;SDS011;8103;51.340;12.326;2023-12-22T12:21:09;7.82;;;1.80;;
15996;SDS011;8103;51.340;12.326;2023-12-22T12:23:37;13.95;;;2.60;;
15996;SDS011;8103;51.340;12.326;2023-12-22T12:26:07;9.18;;;1.77;;
15996;SDS011;8103;51.340;12.326;2023-12-22T12:28:35;7.75;;;2.70;;
15996;SDS011;8103;51.340;12.326;2023-12-22T12:31:03;6.03;;;2.08;;
15996;SDS011;8103;51.340;12.326;2023-12-22T12:33:31;14.15;;;4.57;;
15996;SDS011;8103;51.340;12.326;2023-12-22T12:35:59;4.20;;;1.85;;
15996;SDS011;8103;51.340;12.326;2023-12-22T12:39:14;8.60;;;2.28;;
15996;SDS011;8103;51.340;12.326;2023-12-22T12:41:40;12.68;;;2.53;;
15996;SDS011;8103;51.340;12.326;2023-12-22T12:44:07;9.60;;;2.53;;
15996;SDS011;8103;51.340;12.326;2023-12-22T12:46:35;7.75;;;2.80;;
15996;SDS011;8103;51.340;12.326;2023-12-22T12:49:06;9.00;;;2.10;;
15996;SDS011;8103;51.340;12.326;2023-12-22T12:51:35;14.50;;;2.63;;
15996;SDS011;8103;51.340;12.326;2023-12-22T12:54:05;10.32;;;2.55;;
15996;SDS011;8103;51.340;12.326;2023-12-22T12:56:42;7.32;;;1.98;;
15996;SDS011;8103;51.340;12.326;2023-12-22T12:59:11;2.90;;;0.95;;
15996;SDS011;8103;51.340;12.326;2023-12-22T13:01:39;1.65;;;1.25;;
15996;SDS011;8103;51.340;12.326;2023-12-22T13:04:07;4.60;;;1.40;;
15996;SDS011;8103;51.340;12.326;2023-12-22T13:06:34;2.67;;;1.58;;
15996;SDS011;8103;51.340;12.326;2023-12-22T13:09:01;9.32;;;3.67;;
15996;SDS011;8103;51.340;12.326;2023-12-22T13:11:28;3.40;;;1.90;;
15996;SDS011;8103;51.340;12.326;2023-12-22T13:13:57;2.33;;;1.20;;
15996;SDS011;8103;51.340;12.326;2023-12-22T13:16:24;3.65;;;1.33;;
15996;SDS011;8103;51.340;12.326;2023-12-22T13:18:52;2.50;;;1.25;;
15996;SDS011;8103;51.340;12.326;2023-12-22T13:21:19;3.63;;;1.40;;
15996;SDS011;8103;51.340;12.326;2023-12-22T13:23:47;3.95;;;1.63;;
15996;SDS011;8103;51.340;12.326;2023-12-22T13:26:17;3.70;;;1.83;;
15996;SDS011;8103;51.340;12.326;2023-12-22T13:28:47;5.22;;;1.83;;
15996;SDS011;8103;51.340;12.326;2023-12-22T13:31:14;7.82;;;1.75;;
15996;SDS011;8103;51.340;12.326;2023-12-22T13:33:41;3.63;;;1.25;;
15996;SDS011;8103;51.340;12.326;2023-12-22T13:36:07;6.10;;;1.67;;
15996;SDS011;8103;51.340;12.326;2023-12-22T13:38:35;1.63;;;1.13;;
15996;SDS011;8103;51.340;12.326;2023-12-22T13:41:02;3.60;;;1.95;;
15996;SDS011;8103;51.340;12.326;2023-12-22T13:43:29;5.05;;;1.52;;
15996;SDS011;8103;51.340;12.326;2023-12-22T13:45:56;7.05;;;1.55;;
15996;SDS011;8103;51.340;12.326;2023-12-22T13:48:23;4.53;;;2.22;;
15996;SDS011;8103;51.340;12.326;2023-12-22T13:51:00;3.97;;;1.35;;
15996;SDS011;8103;51.340;12.326;2023-12-22T13:53:27;5.90;;;1.90;;
15996;SDS011;8103;51.340;12.326;2023-12-22T13:55:55;11.13;;;1.85;;
15996;SDS011;8103;51.340;12.326;2023-12-22T13:58:21;9.40;;;2.83;;
15996;SDS011;8103;51.340;12.326;2023-12-22T14:00:48;6.50;;;2.10;;
15996;SDS011;8103;51.340;12.326;2023-12-22T14:03:15;4.53;;;2.00;;
15996;SDS011;8103;51.340;12.326;2023-12-22T14:05:43;6.38;;;1.67;;
15996;SDS011;8103;51.340;12.326;2023-12-22T14:08:09;9.30;;;2.25;;
15996;SDS011;8103;51.340;12.326;2023-12-22T14:10:36;4.65;;;1.70;;
15996;SDS011;8103;51.340;12.326;2023-12-22T14:13:03;8.60;;;2.47;;
15996;SDS011;8103;51.340;12.326;2023-12-22T14:15:29;3.97;;;1.60;;
15996;SDS011;8103;51.340;12.326;2023-12-22T14:18:00;7.32;;;1.85;;
15996;SDS011;8103;51.340;12.326;2023-12-22T14:20:26;6.45;;;1.45;;
15996;SDS011;8103;51.340;12.326;2023-12-22T14:22:53;7.53;;;1.95;;
15996;SDS011;8103;51.340;12.326;2023-12-22T14:25:19;6.18;;;1.67;;
15996;SDS011;8103;51.340;12.326;2023-12-22T14:27:46;10.85;;;4.53;;
15996;SDS011;8103;51.340;12.326;2023-12-22T14:30:13;7.20;;;2.60;;
15996;SDS011;8103;51.340;12.326;2023-12-22T14:32:40;3.72;;;1.70;;
15996;SDS011;8103;51.340;12.326;2023-12-22T14:35:07;5.00;;;1.88;;
15996;SDS011;8103;51.340;12.326;2023-12-22T14:41:21;4.93;;;1.98;;
15996;SDS011;8103;51.340;12.326;2023-12-22T14:47:35;8.20;;;1.75;;
15996;SDS011;8103;51.340;12.326;2023-12-22T14:50:02;7.18;;;1.30;;
15996;SDS011;8103;51.340;12.326;2023-12-22T14:52:30;5.10;;;2.13;;
15996;SDS011;8103;51.340;12.326;2023-12-22T14:55:00;7.50;;;1.63;;
15996;SDS011;8103;51.340;12.326;2023-12-22T14:57:28;5.63;;;2.08;;
15996;SDS011;8103;51.340;12.326;2023-12-22T14:59:55;8.95;;;2.30;;
15996;SDS011;8103;51.340;12.326;2023-12-22T15:02:22;12.57;;;4.10;;